sensor_id;sensor_type;location;lat;lon;timestamp;P1;durP1;ratioP1;P2;durP2;ratioP2
36653;SDS011;22650;49.350;20.898;2023-01-10T00:00:04;15.75;;;8.68;;
36653;SDS011;22650;49.350;20.898;2023-01-10T00:02:39;17.88;;;7.57;;
36653;SDS011;22650;49.350;20.898;2023-01-10T00:05:13;12.25;;;6.88;;
36653;SDS011;22650;49.350;20.898;2023-01-10T00:07:46;13.38;;;7.72;;
36653;SDS011;22650;49.350;20.898;2023-01-10T00:10:21;15.85;;;8.93;;
36653;SDS011;22650;49.350;20.898;2023-01-10T00:12:55;14.90;;;6.97;;
36653;SDS011;22650;49.350;20.898;2023-01-10T00:15:46;18.38;;;8.95;;
36653;SDS011;22650;49.350;20.898;2023-01-10T00:18:20;13.80;;;7.35;;
36653;SDS011;22650;49.350;20.898;2023-01-10T00:20:54;15.00;;;6.63;;
36653;SDS011;22650;49.350;20.898;2023-01-10T00:23:31;15.13;;;7.40;;
36653;SDS011;22650;49.350;20.898;2023-01-10T00:26:06;15.70;;;8.55;;
36653;SDS011;22650;49.350;20.898;2023-01-10T00:28:40;17.67;;;7.63;;
36653;SDS011;22650;49.350;20.898;2023-01-10T00:31:13;13.30;;;6.63;;
36653;SDS011;22650;49.350;20.898;2023-01-10T00:33:47;16.00;;;9.00;;
36653;SDS011;22650;49.350;20.898;2023-01-10T00:36:21;13.50;;;7.35;;
36653;SDS011;22650;49.350;20.898;2023-01-10T00:38:54;15.40;;;7.55;;
36653;SDS011;22650;49.350;20.898;2023-01-10T00:41:29;12.27;;;7.22;;
36653;SDS011;22650;49.350;20.898;2023-01-10T00:44:20;12.07;;;6.10;;
36653;SDS011;22650;49.350;20.898;2023-01-10T00:46:54;11.18;;;6.90;;
36653;SDS011;22650;49.350;20.898;2023-01-10T00:49:27;10.00;;;5.60;;
36653;SDS011;22650;49.350;20.898;2023-01-10T00:52:01;11.85;;;6.20;;
36653;SDS011;22650;49.350;20.898;2023-01-10T00:54:34;9.27;;;6.00;;
36653;SDS011;22650;49.350;20.898;2023-01-10T00:57:09;14.20;;;6.18;;
36653;SDS011;22650;49.350;20.898;2023-01-10T00:59:43;13.23;;;6.05;;
36653;SDS011;22650;49.350;20.898;2023-01-10T01:02:17;13.60;;;6.50;;
36653;SDS011;22650;49.350;20.898;2023-01-10T01:04:50;12.40;;;6.38;;
36653;SDS011;22650;49.350;20.898;2023-01-10T01:07:24;14.70;;;7.47;;
36653;SDS011;22650;49.350;20.898;2023-01-10T01:09:57;11.80;;;6.07;;
36653;SDS011;22650;49.350;20.898;2023-01-10T01:12:50;10.68;;;7.00;;
36653;SDS011;22650;49.350;20.898;2023-01-10T01:15:24;12.52;;;6.85;;
36653;SDS011;22650;49.350;20.898;2023-01-10T01:17:59;13.25;;;6.05;;
36653;SDS011;22650;49.350;20.898;2023-01-10T01:20:33;13.80;;;6.93;;
36653;SDS011;22650;49.350;20.898;2023-01-10T01:23:07;10.52;;;5.75;;
36653;SDS011;22650;49.350;20.898;2023-01-10T01:25:41;9.05;;;5.65;;
36653;SDS011;22650;49.350;20.898;2023-01-10T01:28:16;10.68;;;5.38;;
36653;SDS011;22650;49.350;20.898;2023-01-10T01:30:50;8.15;;;5.10;;
36653;SDS011;22650;49.350;20.898;2023-01-10T01:33:24;10.88;;;5.30;;
36653;SDS011;22650;49.350;20.898;2023-01-10T01:35:58;11.05;;;6.55;;
36653;SDS011;22650;49.350;20.898;2023-01-10T01:38:31;10.70;;;5.55;;
36653;SDS011;22650;49.350;20.898;2023-01-10T01:41:05;9.65;;;4.68;;
36653;SDS011;22650;49.350;20.898;2023-01-10T01:44:02;11.95;;;5.70;;
36653;SDS011;22650;49.350;20.898;2023-01-10T01:46:37;9.68;;;6.07;;
36653;SDS011;22650;49.350;20.898;2023-01-10T01:49:13;11.20;;;5.95;;
36653;SDS011;22650;49.350;20.898;2023-01-10T01:51:53;8.10;;;4.95;;
36653;SDS011;22650;49.350;20.898;2023-01-10T01:54:31;9.65;;;5.22;;
36653;SDS011;22650;49.350;20.898;2023-01-10T01:57:06;12.25;;;5.82;;
36653;SDS011;22650;49.350;20.898;2023-01-10T01:59:47;11.23;;;5.35;;
36653;SDS011;22650;49.350;20.898;2023-01-10T02:02:24;10.18;;;6.22;;
36653;SDS011;22650;49.350;20.898;2023-01-10T02:05:01;8.80;;;5.30;;
36653;SDS011;22650;49.350;20.898;2023-01-10T02:07:37;11.27;;;5.30;;
36653;SDS011;22650;49.350;20.898;2023-01-10T02:10:14;10.90;;;6.22;;
36653;SDS011;22650;49.350;20.898;2023-01-10T02:12:54;9.43;;;5.13;;
36653;SDS011;22650;49.350;20.898;2023-01-10T02:15:33;7.43;;;5.05;;
36653;SDS011;22650;49.350;20.898;2023-01-10T02:18:07;8.18;;;4.38;;
36653;SDS011;22650;49.350;20.898;2023-01-10T02:20:53;8.80;;;5.13;;
36653;SDS011;22650;49.350;20.898;2023-01-10T02:26:57;12.68;;;6.03;;
36653;SDS011;22650;49.350;20.898;2023-01-10T02:32:50;8.05;;;4.90;;
36653;SDS011;22650;49.350;20.898;2023-01-10T02:35:41;8.95;;;5.35;;
36653;SDS011;22650;49.350;20.898;2023-01-10T02:38:43;9.77;;;5.97;;
36653;SDS011;22650;49.350;20.898;2023-01-10T02:41:27;11.73;;;5.65;;
36653;SDS011;22650;49.350;20.898;2023-01-10T02:44:07;11.30;;;5.30;;
36653;SDS011;22650;49.350;20.898;2023-01-10T02:46:49;11.15;;;6.10;;
36653;SDS011;22650;49.350;20.898;2023-01-10T02:49:24;9.73;;;5.63;;
36653;SDS011;22650;49.350;20.898;2023-01-10T02:51:58;12.85;;;7.18;;
36653;SDS011;22650;49.350;20.898;2023-01-10T02:54:32;14.82;;;7.47;;
36653;SDS011;22650;49.350;20.898;2023-01-10T02:57:12;9.57;;;5.68;;
36653;SDS011;22650;49.350;20.898;2023-01-10T03:03:07;8.55;;;4.45;;
36653;SDS011;22650;49.350;20.898;2023-01-10T03:05:50;8.18;;;4.47;;
36653;SDS011;22650;49.350;20.898;2023-01-10T03:08:31;3.63;;;2.63;;
36653;SDS011;22650;49.350;20.898;2023-01-10T03:11:09;3.63;;;2.47;;
36653;SDS011;22650;49.350;20.898;2023-01-10T03:13:45;4.38;;;3.22;;
36653;SDS011;22650;49.350;20.898;2023-01-10T03:16:23;4.57;;;2.08;;
36653;SDS011;22650;49.350;20.898;2023-01-10T03:19:02;3.92;;;1.95;;
36653;SDS011;22650;49.350;20.898;2023-01-10T03:21:40;2.85;;;1.80;;
36653;SDS011;22650;49.350;20.898;2023-01-10T03:24:16;2.88;;;1.45;;
36653;SDS011;22650;49.350;20.898;2023-01-10T03:26:53;3.15;;;1.73;;
36653;SDS011;22650;49.350;20.898;2023-01-10T03:29:40;3.38;;;1.55;;
36653;SDS011;22650;49.350;20.898;2023-01-10T03:32:18;1.77;;;1.45;;
36653;SDS011;22650;49.350;20.898;2023-01-10T03:34:55;5.25;;;1.58;;
36653;SDS011;22650;49.350;20.898;2023-01-10T03:37:33;0.77;;;0.60;;
36653;SDS011;22650;49.350;20.898;2023-01-10T03:40:12;0.75;;;0.50;;
36653;SDS011;22650;49.350;20.898;2023-01-10T03:42:52;1.90;;;0.60;;
36653;SDS011;22650;49.350;20.898;2023-01-10T03:45:48;0.57;;;0.55;;
36653;SDS011;22650;49.350;20.898;2023-01-10T03:48:28;1.20;;;0.50;;
36653;SDS011;22650;49.350;20.898;2023-01-10T03:51:04;1.75;;;0.88;;
36653;SDS011;22650;49.350;20.898;2023-01-10T03:53:41;1.10;;;0.77;;
36653;SDS011;22650;49.350;20.898;2023-01-10T03:56:15;0.88;;;0.43;;
36653;SDS011;22650;49.350;20.898;2023-01-10T03:58:49;1.52;;;0.80;;
36653;SDS011;22650;49.350;20.898;2023-01-10T04:01:23;1.23;;;0.55;;
36653;SDS011;22650;49.350;20.898;2023-01-10T04:03:58;0.10;;;0.10;;
36653;SDS011;22650;49.350;20.898;2023-01-10T04:06:31;0.10;;;0.10;;
36653;SDS011;22650;49.350;20.898;2023-01-10T04:09:07;0.63;;;0.30;;
36653;SDS011;22650;49.350;20.898;2023-01-10T04:11:40;0.73;;;0.30;;
36653;SDS011;22650;49.350;20.898;2023-01-10T04:14:14;0.32;;;0.30;;
36653;SDS011;22650;49.350;20.898;2023-01-10T04:16:48;1.10;;;0.55;;
36653;SDS011;22650;49.350;20.898;2023-01-10T04:19:21;1.08;;;0.30;;
36653;SDS011;22650;49.350;20.898;2023-01-10T04:21:55;0.38;;;0.30;;
36653;SDS011;22650;49.350;20.898;2023-01-10T04:24:31;0.85;;;0.50;;
36653;SDS011;22650;49.350;20.898;2023-01-10T04:27:05;0.65;;;0.30;;
36653;SDS011;22650;49.350;20.898;2023-01-10T04:29:38;0.32;;;0.32;;
36653;SDS011;22650;49.350;20.898;2023-01-10T04:32:12;0.45;;;0.20;;
36653;SDS011;22650;49.350;20.898;2023-01-10T04:34:46;0.30;;;0.20;;
36653;SDS011;22650;49.350;20.898;2023-01-10T04:37:20;0.43;;;0.38;;
36653;SDS011;22650;49.350;20.898;2023-01-10T04:39:55;0.20;;;0.20;;
36653;SDS011;22650;49.350;20.898;2023-01-10T04:42:28;0.22;;;0.20;;
36653;SDS011;22650;49.350;20.898;2023-01-10T04:45:02;0.40;;;0.25;;
36653;SDS011;22650;49.350;20.898;2023-01-10T04:47:37;1.30;;;0.10;;
36653;SDS011;22650;49.350;20.898;2023-01-10T04:50:10;2.65;;;0.30;;
36653;SDS011;22650;49.350;20.898;2023-01-10T04:52:44;0.38;;;0.30;;
36653;SDS011;22650;49.350;20.898;2023-01-10T04:55:19;0.30;;;0.30;;
36653;SDS011;22650;49.350;20.898;2023-01-10T04:57:53;0.63;;;0.20;;
36653;SDS011;22650;49.350;20.898;2023-01-10T05:00:27;1.38;;;0.52;;
36653;SDS011;22650;49.350;20.898;2023-01-10T05:03:00;2.80;;;0.80;;
36653;SDS011;22650;49.350;20.898;2023-01-10T05:05:34;0.88;;;0.65;;
36653;SDS011;22650;49.350;20.898;2023-01-10T05:08:08;1.70;;;0.40;;
36653;SDS011;22650;49.350;20.898;2023-01-10T05:10:43;3.35;;;0.63;;
36653;SDS011;22650;49.350;20.898;2023-01-10T05:13:17;0.75;;;0.63;;
36653;SDS011;22650;49.350;20.898;2023-01-10T05:15:52;1.20;;;0.50;;
36653;SDS011;22650;49.350;20.898;2023-01-10T05:18:27;1.85;;;0.60;;
36653;SDS011;22650;49.350;20.898;2023-01-10T05:21:01;1.08;;;0.50;;
36653;SDS011;22650;49.350;20.898;2023-01-10T05:23:35;1.83;;;0.90;;
36653;SDS011;22650;49.350;20.898;2023-01-10T05:26:11;2.30;;;1.00;;
36653;SDS011;22650;49.350;20.898;2023-01-10T05:28:46;1.48;;;0.30;;
36653;SDS011;22650;49.350;20.898;2023-01-10T05:31:20;0.47;;;0.28;;
36653;SDS011;22650;49.350;20.898;2023-01-10T05:33:54;0.52;;;0.30;;
36653;SDS011;22650;49.350;20.898;2023-01-10T05:36:27;1.23;;;0.20;;
36653;SDS011;22650;49.350;20.898;2023-01-10T05:39:02;0.75;;;0.25;;
36653;SDS011;22650;49.350;20.898;2023-01-10T05:41:37;0.80;;;0.30;;
36653;SDS011;22650;49.350;20.898;2023-01-10T05:44:11;0.20;;;0.20;;
36653;SDS011;22650;49.350;20.898;2023-01-10T05:46:45;0.38;;;0.20;;
36653;SDS011;22650;49.350;20.898;2023-01-10T05:49:19;0.30;;;0.30;;
36653;SDS011;22650;49.350;20.898;2023-01-10T05:51:53;0.43;;;0.20;;
36653;SDS011;22650;49.350;20.898;2023-01-10T05:54:26;0.32;;;0.20;;
36653;SDS011;22650;49.350;20.898;2023-01-10T05:57:05;0.38;;;0.28;;
36653;SDS011;22650;49.350;20.898;2023-01-10T05:59:38;0.98;;;0.20;;
36653;SDS011;22650;49.350;20.898;2023-01-10T06:02:12;5.93;;;0.55;;
36653;SDS011;22650;49.350;20.898;2023-01-10T06:04:46;0.28;;;0.28;;
36653;SDS011;22650;49.350;20.898;2023-01-10T06:07:20;0.40;;;0.30;;
36653;SDS011;22650;49.350;20.898;2023-01-10T06:09:54;0.85;;;0.20;;
36653;SDS011;22650;49.350;20.898;2023-01-10T06:12:29;0.70;;;0.30;;
36653;SDS011;22650;49.350;20.898;2023-01-10T06:15:02;1.17;;;0.20;;
36653;SDS011;22650;49.350;20.898;2023-01-10T06:17:37;0.20;;;0.20;;
36653;SDS011;22650;49.350;20.898;2023-01-10T06:20:11;0.20;;;0.20;;
36653;SDS011;22650;49.350;20.898;2023-01-10T06:22:45;0.38;;;0.22;;
36653;SDS011;22650;49.350;20.898;2023-01-10T06:25:18;0.15;;;0.15;;
36653;SDS011;22650;49.350;20.898;2023-01-10T06:27:53;0.35;;;0.28;;
36653;SDS011;22650;49.350;20.898;2023-01-10T06:30:27;0.20;;;0.20;;
36653;SDS011;22650;49.350;20.898;2023-01-10T06:33:01;8.52;;;3.70;;
36653;SDS011;22650;49.350;20.898;2023-01-10T06:35:35;12.90;;;5.45;;
36653;SDS011;22650;49.350;20.898;2023-01-10T06:38:09;3.55;;;1.50;;
36653;SDS011;22650;49.350;20.898;2023-01-10T06:40:42;0.63;;;0.43;;
36653;SDS011;22650;49.350;20.898;2023-01-10T06:43:17;0.85;;;0.30;;
36653;SDS011;22650;49.350;20.898;2023-01-10T06:45:51;1.90;;;0.50;;
36653;SDS011;22650;49.350;20.898;2023-01-10T06:48:25;0.60;;;0.28;;
36653;SDS011;22650;49.350;20.898;2023-01-10T06:50:58;0.28;;;0.28;;
36653;SDS011;22650;49.350;20.898;2023-01-10T06:53:32;4.60;;;2.15;;
36653;SDS011;22650;49.350;20.898;2023-01-10T06:56:06;0.93;;;0.70;;
36653;SDS011;22650;49.350;20.898;2023-01-10T06:58:41;1.08;;;0.77;;
36653;SDS011;22650;49.350;20.898;2023-01-10T07:01:16;1.00;;;0.82;;
36653;SDS011;22650;49.350;20.898;2023-01-10T07:03:51;0.63;;;0.60;;
36653;SDS011;22650;49.350;20.898;2023-01-10T07:06:25;0.40;;;0.40;;
36653;SDS011;22650;49.350;20.898;2023-01-10T07:08:59;2.20;;;1.17;;
36653;SDS011;22650;49.350;20.898;2023-01-10T07:11:33;3.28;;;1.30;;
36653;SDS011;22650;49.350;20.898;2023-01-10T07:14:08;2.90;;;1.92;;
36653;SDS011;22650;49.350;20.898;2023-01-10T07:16:42;4.78;;;1.20;;
36653;SDS011;22650;49.350;20.898;2023-01-10T07:19:15;2.70;;;1.30;;
36653;SDS011;22650;49.350;20.898;2023-01-10T07:21:50;2.08;;;1.35;;
36653;SDS011;22650;49.350;20.898;2023-01-10T07:24:24;5.72;;;1.00;;
36653;SDS011;22650;49.350;20.898;2023-01-10T07:26:57;1.95;;;1.13;;
36653;SDS011;22650;49.350;20.898;2023-01-10T07:29:32;3.60;;;1.40;;
36653;SDS011;22650;49.350;20.898;2023-01-10T07:32:07;1.85;;;1.42;;
36653;SDS011;22650;49.350;20.898;2023-01-10T07:34:41;1.65;;;0.73;;
36653;SDS011;22650;49.350;20.898;2023-01-10T07:37:14;1.30;;;0.80;;
36653;SDS011;22650;49.350;20.898;2023-01-10T07:39:48;2.45;;;1.20;;
36653;SDS011;22650;49.350;20.898;2023-01-10T07:42:21;1.77;;;0.73;;
36653;SDS011;22650;49.350;20.898;2023-01-10T07:44:57;3.05;;;1.30;;
36653;SDS011;22650;49.350;20.898;2023-01-10T07:47:30;4.88;;;2.50;;
36653;SDS011;22650;49.350;20.898;2023-01-10T07:50:04;33.22;;;13.35;;
36653;SDS011;22650;49.350;20.898;2023-01-10T07:52:38;5.00;;;2.00;;
36653;SDS011;22650;49.350;20.898;2023-01-10T07:55:12;2.60;;;0.85;;
36653;SDS011;22650;49.350;20.898;2023-01-10T07:57:46;2.63;;;0.80;;
36653;SDS011;22650;49.350;20.898;2023-01-10T08:00:22;1.98;;;0.82;;
36653;SDS011;22650;49.350;20.898;2023-01-10T08:02:56;1.83;;;0.80;;
36653;SDS011;22650;49.350;20.898;2023-01-10T08:05:30;0.60;;;0.40;;
36653;SDS011;22650;49.350;20.898;2023-01-10T08:08:04;1.48;;;0.75;;
36653;SDS011;22650;49.350;20.898;2023-01-10T08:10:38;1.30;;;0.52;;
36653;SDS011;22650;49.350;20.898;2023-01-10T08:13:13;0.63;;;0.32;;
36653;SDS011;22650;49.350;20.898;2023-01-10T08:15:51;2.25;;;0.80;;
36653;SDS011;22650;49.350;20.898;2023-01-10T08:18:27;2.40;;;0.85;;
36653;SDS011;22650;49.350;20.898;2023-01-10T08:21:01;2.65;;;1.42;;
36653;SDS011;22650;49.350;20.898;2023-01-10T08:23:35;4.15;;;1.52;;
36653;SDS011;22650;49.350;20.898;2023-01-10T08:26:08;4.43;;;1.08;;
36653;SDS011;22650;49.350;20.898;2023-01-10T08:28:42;2.33;;;0.50;;
36653;SDS011;22650;49.350;20.898;2023-01-10T08:31:17;2.53;;;1.40;;
36653;SDS011;22650;49.350;20.898;2023-01-10T08:33:51;1.55;;;0.60;;
36653;SDS011;22650;49.350;20.898;2023-01-10T08:36:24;1.98;;;0.47;;
36653;SDS011;22650;49.350;20.898;2023-01-10T08:38:59;1.45;;;0.63;;
36653;SDS011;22650;49.350;20.898;2023-01-10T08:41:33;0.98;;;0.77;;
36653;SDS011;22650;49.350;20.898;2023-01-10T08:44:06;0.63;;;0.50;;
36653;SDS011;22650;49.350;20.898;2023-01-10T08:46:43;0.52;;;0.30;;
36653;SDS011;22650;49.350;20.898;2023-01-10T08:49:17;1.05;;;0.38;;
36653;SDS011;22650;49.350;20.898;2023-01-10T08:51:51;1.08;;;0.47;;
36653;SDS011;22650;49.350;20.898;2023-01-10T08:54:24;1.10;;;0.40;;
36653;SDS011;22650;49.350;20.898;2023-01-10T08:56:58;0.70;;;0.35;;
36653;SDS011;22650;49.350;20.898;2023-01-10T08:59:32;1.33;;;0.40;;
36653;SDS011;22650;49.350;20.898;2023-01-10T09:02:07;2.35;;;0.47;;
36653;SDS011;22650;49.350;20.898;2023-01-10T09:04:44;1.58;;;0.60;;
36653;SDS011;22650;49.350;20.898;2023-01-10T09:07:17;1.75;;;0.40;;
36653;SDS011;22650;49.350;20.898;2023-01-10T09:09:51;0.95;;;0.40;;
36653;SDS011;22650;49.350;20.898;2023-01-10T09:12:24;0.80;;;0.20;;
36653;SDS011;22650;49.350;20.898;2023-01-10T09:15:16;1.27;;;0.95;;
36653;SDS011;22650;49.350;20.898;2023-01-10T09:17:53;2.15;;;1.05;;
36653;SDS011;22650;49.350;20.898;2023-01-10T09:20:27;1.73;;;1.10;;
36653;SDS011;22650;49.350;20.898;2023-01-10T09:23:04;2.03;;;0.93;;
36653;SDS011;22650;49.350;20.898;2023-01-10T09:25:39;1.50;;;0.98;;
36653;SDS011;22650;49.350;20.898;2023-01-10T09:28:12;1.33;;;0.60;;
36653;SDS011;22650;49.350;20.898;2023-01-10T09:30:46;0.88;;;0.60;;
36653;SDS011;22650;49.350;20.898;2023-01-10T09:33:22;1.58;;;0.40;;
36653;SDS011;22650;49.350;20.898;2023-01-10T09:36:00;1.08;;;0.60;;
36653;SDS011;22650;49.350;20.898;2023-01-10T09:38:34;0.90;;;0.30;;
36653;SDS011;22650;49.350;20.898;2023-01-10T09:41:13;1.35;;;0.40;;
36653;SDS011;22650;49.350;20.898;2023-01-10T09:44:11;0.70;;;0.43;;
36653;SDS011;22650;49.350;20.898;2023-01-10T09:46:52;0.70;;;0.55;;
36653;SDS011;22650;49.350;20.898;2023-01-10T09:49:47;3.92;;;2.53;;
36653;SDS011;22650;49.350;20.898;2023-01-10T09:52:32;0.30;;;0.30;;
36653;SDS011;22650;49.350;20.898;2023-01-10T09:55:15;0.77;;;0.30;;
36653;SDS011;22650;49.350;20.898;2023-01-10T09:57:52;0.75;;;0.25;;
36653;SDS011;22650;49.350;20.898;2023-01-10T10:00:32;1.30;;;0.52;;
36653;SDS011;22650;49.350;20.898;2023-01-10T10:03:18;1.38;;;0.45;;
36653;SDS011;22650;49.350;20.898;2023-01-10T10:05:57;2.83;;;0.38;;
36653;SDS011;22650;49.350;20.898;2023-01-10T10:08:44;0.70;;;0.50;;
36653;SDS011;22650;49.350;20.898;2023-01-10T10:14:32;0.85;;;0.30;;
36653;SDS011;22650;49.350;20.898;2023-01-10T10:17:18;2.50;;;0.50;;
36653;SDS011;22650;49.350;20.898;2023-01-10T10:20:22;3.55;;;0.70;;
36653;SDS011;22650;49.350;20.898;2023-01-10T10:23:07;1.52;;;0.50;;
36653;SDS011;22650;49.350;20.898;2023-01-10T10:25:55;0.70;;;0.47;;
36653;SDS011;22650;49.350;20.898;2023-01-10T10:28:37;2.90;;;0.65;;
36653;SDS011;22650;49.350;20.898;2023-01-10T10:31:33;1.85;;;0.75;;
36653;SDS011;22650;49.350;20.898;2023-01-10T10:34:21;1.25;;;0.50;;
36653;SDS011;22650;49.350;20.898;2023-01-10T10:36:58;1.58;;;0.47;;
36653;SDS011;22650;49.350;20.898;2023-01-10T10:39:36;1.08;;;0.75;;
36653;SDS011;22650;49.350;20.898;2023-01-10T10:42:16;0.40;;;0.40;;
36653;SDS011;22650;49.350;20.898;2023-01-10T10:44:51;2.00;;;0.60;;
36653;SDS011;22650;49.350;20.898;2023-01-10T10:47:27;2.05;;;0.73;;
36653;SDS011;22650;49.350;20.898;2023-01-10T10:50:07;0.65;;;0.60;;
36653;SDS011;22650;49.350;20.898;2023-01-10T10:52:51;2.35;;;1.20;;
36653;SDS011;22650;49.350;20.898;2023-01-10T10:55:28;1.67;;;0.77;;
36653;SDS011;22650;49.350;20.898;2023-01-10T10:58:06;3.25;;;1.23;;
36653;SDS011;22650;49.350;20.898;2023-01-10T11:00:42;4.43;;;0.93;;
36653;SDS011;22650;49.350;20.898;2023-01-10T11:03:22;2.63;;;0.95;;
36653;SDS011;22650;49.350;20.898;2023-01-10T11:05:59;1.80;;;0.90;;
36653;SDS011;22650;49.350;20.898;2023-01-10T11:08:34;0.73;;;0.57;;
36653;SDS011;22650;49.350;20.898;2023-01-10T11:11:16;1.63;;;0.70;;
36653;SDS011;22650;49.350;20.898;2023-01-10T11:13:53;3.35;;;0.80;;
36653;SDS011;22650;49.350;20.898;2023-01-10T11:16:28;0.95;;;0.52;;
36653;SDS011;22650;49.350;20.898;2023-01-10T11:19:17;4.53;;;1.20;;
36653;SDS011;22650;49.350;20.898;2023-01-10T11:21:53;1.63;;;0.80;;
36653;SDS011;22650;49.350;20.898;2023-01-10T11:24:29;1.88;;;0.63;;
36653;SDS011;22650;49.350;20.898;2023-01-10T11:27:14;2.25;;;0.60;;
36653;SDS011;22650;49.350;20.898;2023-01-10T11:29:50;1.05;;;0.50;;
36653;SDS011;22650;49.350;20.898;2023-01-10T11:32:29;2.33;;;0.80;;
36653;SDS011;22650;49.350;20.898;2023-01-10T11:35:07;0.47;;;0.40;;
36653;SDS011;22650;49.350;20.898;2023-01-10T11:37:57;1.95;;;1.08;;
36653;SDS011;22650;49.350;20.898;2023-01-10T11:45:58;2.72;;;0.47;;
36653;SDS011;22650;49.350;20.898;2023-01-10T11:48:43;1.27;;;0.40;;
36653;SDS011;22650;49.350;20.898;2023-01-10T11:51:39;1.90;;;1.10;;
36653;SDS011;22650;49.350;20.898;2023-01-10T11:54:18;0.65;;;0.65;;
36653;SDS011;22650;49.350;20.898;2023-01-10T11:56:54;5.72;;;4.28;;
36653;SDS011;22650;49.350;20.898;2023-01-10T11:59:31;43.20;;;14.57;;
36653;SDS011;22650;49.350;20.898;2023-01-10T12:02:09;22.42;;;4.95;;
36653;SDS011;22650;49.350;20.898;2023-01-10T12:04:52;9.07;;;2.88;;
36653;SDS011;22650;49.350;20.898;2023-01-10T12:07:28;22.15;;;8.80;;
36653;SDS011;22650;49.350;20.898;2023-01-10T12:10:02;1.45;;;0.50;;
36653;SDS011;22650;49.350;20.898;2023-01-10T12:12:36;2.45;;;0.90;;
36653;SDS011;22650;49.350;20.898;2023-01-10T12:15:22;3.63;;;0.98;;
36653;SDS011;22650;49.350;20.898;2023-01-10T12:17:58;0.80;;;0.45;;
36653;SDS011;22650;49.350;20.898;2023-01-10T12:20:36;5.43;;;1.55;;
36653;SDS011;22650;49.350;20.898;2023-01-10T12:25:52;15.90;;;5.07;;
36653;SDS011;22650;49.350;20.898;2023-01-10T12:28:41;3.90;;;1.45;;
36653;SDS011;22650;49.350;20.898;2023-01-10T12:31:21;1.35;;;0.80;;
36653;SDS011;22650;49.350;20.898;2023-01-10T12:33:57;0.40;;;0.30;;
36653;SDS011;22650;49.350;20.898;2023-01-10T12:36:39;0.95;;;0.40;;
36653;SDS011;22650;49.350;20.898;2023-01-10T12:39:18;1.65;;;0.50;;
36653;SDS011;22650;49.350;20.898;2023-01-10T12:41:58;1.02;;;0.50;;
36653;SDS011;22650;49.350;20.898;2023-01-10T12:44:59;0.80;;;0.40;;
36653;SDS011;22650;49.350;20.898;2023-01-10T12:47:40;1.42;;;0.93;;
36653;SDS011;22650;49.350;20.898;2023-01-10T12:50:27;0.52;;;0.30;;
36653;SDS011;22650;49.350;20.898;2023-01-10T12:53:04;0.70;;;0.40;;
36653;SDS011;22650;49.350;20.898;2023-01-10T12:55:43;0.43;;;0.40;;
36653;SDS011;22650;49.350;20.898;2023-01-10T12:58:19;1.90;;;0.50;;
36653;SDS011;22650;49.350;20.898;2023-01-10T13:00:58;1.27;;;0.40;;
36653;SDS011;22650;49.350;20.898;2023-01-10T13:03:35;0.65;;;0.35;;
36653;SDS011;22650;49.350;20.898;2023-01-10T13:09:21;0.93;;;0.60;;
36653;SDS011;22650;49.350;20.898;2023-01-10T13:11:58;2.35;;;0.40;;
36653;SDS011;22650;49.350;20.898;2023-01-10T13:14:36;1.17;;;0.43;;
36653;SDS011;22650;49.350;20.898;2023-01-10T13:17:18;0.90;;;0.30;;
36653;SDS011;22650;49.350;20.898;2023-01-10T13:23:14;0.75;;;0.47;;
36653;SDS011;22650;49.350;20.898;2023-01-10T13:25:58;1.60;;;0.80;;
36653;SDS011;22650;49.350;20.898;2023-01-10T13:28:36;1.80;;;0.90;;
36653;SDS011;22650;49.350;20.898;2023-01-10T13:31:20;2.70;;;0.82;;
36653;SDS011;22650;49.350;20.898;2023-01-10T13:33:56;1.90;;;0.60;;
36653;SDS011;22650;49.350;20.898;2023-01-10T13:36:35;0.52;;;0.30;;
36653;SDS011;22650;49.350;20.898;2023-01-10T13:39:18;0.85;;;0.43;;
36653;SDS011;22650;49.350;20.898;2023-01-10T13:42:11;2.17;;;0.82;;
36653;SDS011;22650;49.350;20.898;2023-01-10T13:45:17;1.30;;;0.70;;
36653;SDS011;22650;49.350;20.898;2023-01-10T13:47:59;0.77;;;0.43;;
36653;SDS011;22650;49.350;20.898;2023-01-10T13:51:13;1.67;;;0.70;;
36653;SDS011;22650;49.350;20.898;2023-01-10T13:53:57;2.28;;;0.93;;
36653;SDS011;22650;49.350;20.898;2023-01-10T13:56:35;0.47;;;0.43;;
36653;SDS011;22650;49.350;20.898;2023-01-10T13:59:12;1.42;;;0.60;;
36653;SDS011;22650;49.350;20.898;2023-01-10T14:02:25;1.25;;;0.35;;
36653;SDS011;22650;49.350;20.898;2023-01-10T14:05:02;1.10;;;0.43;;
36653;SDS011;22650;49.350;20.898;2023-01-10T14:07:41;1.65;;;0.63;;
36653;SDS011;22650;49.350;20.898;2023-01-10T14:10:18;1.23;;;0.60;;
36653;SDS011;22650;49.350;20.898;2023-01-10T14:12:54;0.40;;;0.38;;
36653;SDS011;22650;49.350;20.898;2023-01-10T14:15:35;1.83;;;0.68;;
36653;SDS011;22650;49.350;20.898;2023-01-10T14:18:18;0.85;;;0.63;;
36653;SDS011;22650;49.350;20.898;2023-01-10T14:23:30;1.15;;;0.60;;
36653;SDS011;22650;49.350;20.898;2023-01-10T14:26:07;1.83;;;0.75;;
36653;SDS011;22650;49.350;20.898;2023-01-10T14:28:51;1.95;;;0.65;;
36653;SDS011;22650;49.350;20.898;2023-01-10T14:31:24;2.47;;;0.80;;
36653;SDS011;22650;49.350;20.898;2023-01-10T14:34:00;1.55;;;0.60;;
36653;SDS011;22650;49.350;20.898;2023-01-10T14:36:37;3.60;;;1.08;;
36653;SDS011;22650;49.350;20.898;2023-01-10T14:39:16;1.73;;;0.80;;
36653;SDS011;22650;49.350;20.898;2023-01-10T14:41:52;1.15;;;0.60;;
36653;SDS011;22650;49.350;20.898;2023-01-10T14:44:29;0.40;;;0.32;;
36653;SDS011;22650;49.350;20.898;2023-01-10T14:47:20;2.70;;;1.00;;
36653;SDS011;22650;49.350;20.898;2023-01-10T14:50:00;2.22;;;1.00;;
36653;SDS011;22650;49.350;20.898;2023-01-10T14:52:34;2.88;;;1.02;;
36653;SDS011;22650;49.350;20.898;2023-01-10T14:55:09;2.10;;;1.00;;
36653;SDS011;22650;49.350;20.898;2023-01-10T14:57:51;0.55;;;0.40;;
36653;SDS011;22650;49.350;20.898;2023-01-10T15:00:27;0.95;;;0.70;;
36653;SDS011;22650;49.350;20.898;2023-01-10T15:03:02;0.88;;;0.60;;
36653;SDS011;22650;49.350;20.898;2023-01-10T15:05:43;0.73;;;0.55;;
36653;SDS011;22650;49.350;20.898;2023-01-10T15:08:21;1.05;;;0.50;;
36653;SDS011;22650;49.350;20.898;2023-01-10T15:10:56;1.55;;;0.65;;
36653;SDS011;22650;49.350;20.898;2023-01-10T15:13:35;1.35;;;0.70;;
36653;SDS011;22650;49.350;20.898;2023-01-10T15:16:26;1.88;;;1.05;;
36653;SDS011;22650;49.350;20.898;2023-01-10T15:19:01;2.90;;;1.10;;
36653;SDS011;22650;49.350;20.898;2023-01-10T15:21:41;1.88;;;1.20;;
36653;SDS011;22650;49.350;20.898;2023-01-10T15:24:27;1.10;;;0.63;;
36653;SDS011;22650;49.350;20.898;2023-01-10T15:27:04;1.02;;;0.65;;
36653;SDS011;22650;49.350;20.898;2023-01-10T15:29:40;0.82;;;0.68;;
36653;SDS011;22650;49.350;20.898;2023-01-10T15:32:19;0.93;;;0.55;;
36653;SDS011;22650;49.350;20.898;2023-01-10T15:34:55;2.65;;;0.80;;
36653;SDS011;22650;49.350;20.898;2023-01-10T15:37:33;0.50;;;0.50;;
36653;SDS011;22650;49.350;20.898;2023-01-10T15:40:18;1.30;;;0.40;;
36653;SDS011;22650;49.350;20.898;2023-01-10T15:43:08;2.35;;;0.80;;
36653;SDS011;22650;49.350;20.898;2023-01-10T15:45:43;1.88;;;0.90;;
36653;SDS011;22650;49.350;20.898;2023-01-10T15:48:24;3.80;;;0.95;;
36653;SDS011;22650;49.350;20.898;2023-01-10T15:51:10;1.45;;;0.90;;
36653;SDS011;22650;49.350;20.898;2023-01-10T15:53:51;2.90;;;1.33;;
36653;SDS011;22650;49.350;20.898;2023-01-10T15:56:29;3.85;;;2.30;;
36653;SDS011;22650;49.350;20.898;2023-01-10T15:59:18;1.98;;;0.88;;
36653;SDS011;22650;49.350;20.898;2023-01-10T16:01:54;1.35;;;0.50;;
36653;SDS011;22650;49.350;20.898;2023-01-10T16:04:38;4.43;;;0.60;;